sensor_id;sensor_type;location;lat;lon;timestamp;P1;durP1;ratioP1;P2;durP2;ratioP2
3321;SDS011;1673;51.388;7.086;2023-06-04T00:01:41;6.35;;;2.85;;
3321;SDS011;1673;51.388;7.086;2023-06-04T00:04:12;5.35;;;2.50;;
3321;SDS011;1673;51.388;7.086;2023-06-04T00:06:43;6.38;;;2.78;;
3321;SDS011;1673;51.388;7.086;2023-06-04T00:09:13;9.93;;;2.70;;
3321;SDS011;1673;51.388;7.086;2023-06-04T00:11:42;4.50;;;2.30;;
3321;SDS011;1673;51.388;7.086;2023-06-04T00:14:15;4.30;;;2.30;;
3321;SDS011;1673;51.388;7.086;2023-06-04T00:16:45;6.10;;;2.60;;
3321;SDS011;1673;51.388;7.086;2023-06-04T00:19:14;7.05;;;2.80;;
3321;SDS011;1673;51.388;7.086;2023-06-04T00:21:44;6.03;;;2.60;;
3321;SDS011;1673;51.388;7.086;2023-06-04T00:24:14;5.78;;;2.80;;
3321;SDS011;1673;51.388;7.086;2023-06-04T00:26:44;6.45;;;3.00;;
3321;SDS011;1673;51.388;7.086;2023-06-04T00:29:17;6.60;;;2.60;;
3321;SDS011;1673;51.388;7.086;2023-06-04T00:31:47;5.60;;;2.50;;
3321;SDS011;1673;51.388;7.086;2023-06-04T00:34:17;6.68;;;2.60;;
3321;SDS011;1673;51.388;7.086;2023-06-04T00:36:46;6.13;;;2.90;;
3321;SDS011;1673;51.388;7.086;2023-06-04T00:39:16;5.60;;;2.87;;
3321;SDS011;1673;51.388;7.086;2023-06-04T00:41:46;6.65;;;2.60;;
3321;SDS011;1673;51.388;7.086;2023-06-04T00:44:19;5.68;;;2.72;;
3321;SDS011;1673;51.388;7.086;2023-06-04T00:46:51;4.68;;;2.42;;
3321;SDS011;1673;51.388;7.086;2023-06-04T00:49:22;5.90;;;2.75;;
3321;SDS011;1673;51.388;7.086;2023-06-04T00:51:51;4.93;;;2.30;;
3321;SDS011;1673;51.388;7.086;2023-06-04T00:54:21;6.05;;;2.75;;
3321;SDS011;1673;51.388;7.086;2023-06-04T00:56:51;4.05;;;2.10;;
3321;SDS011;1673;51.388;7.086;2023-06-04T00:59:23;4.50;;;2.30;;
3321;SDS011;1673;51.388;7.086;2023-06-04T01:01:55;5.90;;;2.70;;
3321;SDS011;1673;51.388;7.086;2023-06-04T01:04:29;5.30;;;2.60;;
3321;SDS011;1673;51.388;7.086;2023-06-04T01:07:02;4.73;;;2.20;;
3321;SDS011;1673;51.388;7.086;2023-06-04T01:09:33;5.43;;;2.50;;
3321;SDS011;1673;51.388;7.086;2023-06-04T01:12:03;7.80;;;2.53;;
3321;SDS011;1673;51.388;7.086;2023-06-04T01:14:36;5.00;;;2.30;;
3321;SDS011;1673;51.388;7.086;2023-06-04T01:17:07;6.70;;;2.60;;
3321;SDS011;1673;51.388;7.086;2023-06-04T01:19:57;10.10;;;2.83;;
3321;SDS011;1673;51.388;7.086;2023-06-04T01:22:37;8.27;;;2.60;;
3321;SDS011;1673;51.388;7.086;2023-06-04T01:25:12;5.05;;;2.53;;
3321;SDS011;1673;51.388;7.086;2023-06-04T01:27:47;7.53;;;3.10;;
3321;SDS011;1673;51.388;7.086;2023-06-04T01:30:23;5.07;;;2.55;;
3321;SDS011;1673;51.388;7.086;2023-06-04T01:32:53;8.07;;;3.20;;
3321;SDS011;1673;51.388;7.086;2023-06-04T01:35:23;6.22;;;2.60;;
3321;SDS011;1673;51.388;7.086;2023-06-04T01:37:55;5.60;;;2.40;;
3321;SDS011;1673;51.388;7.086;2023-06-04T01:40:25;6.53;;;2.80;;
3321;SDS011;1673;51.388;7.086;2023-06-04T01:42:55;9.03;;;2.73;;
3321;SDS011;1673;51.388;7.086;2023-06-04T01:45:27;6.13;;;3.00;;
3321;SDS011;1673;51.388;7.086;2023-06-04T01:47:57;7.00;;;2.72;;
3321;SDS011;1673;51.388;7.086;2023-06-04T01:50:30;5.40;;;2.85;;
3321;SDS011;1673;51.388;7.086;2023-06-04T01:52:59;6.33;;;3.00;;
3321;SDS011;1673;51.388;7.086;2023-06-04T01:55:30;5.30;;;2.50;;
3321;SDS011;1673;51.388;7.086;2023-06-04T01:58:00;5.80;;;2.80;;
3321;SDS011;1673;51.388;7.086;2023-06-04T02:00:32;6.07;;;2.60;;
3321;SDS011;1673;51.388;7.086;2023-06-04T02:03:02;6.33;;;2.80;;
3321;SDS011;1673;51.388;7.086;2023-06-04T02:05:32;6.13;;;3.00;;
3321;SDS011;1673;51.388;7.086;2023-06-04T02:08:02;5.60;;;2.70;;
3321;SDS011;1673;51.388;7.086;2023-06-04T02:10:32;5.80;;;2.95;;
3321;SDS011;1673;51.388;7.086;2023-06-04T02:13:02;7.60;;;3.17;;
3321;SDS011;1673;51.388;7.086;2023-06-04T02:15:35;7.82;;;3.00;;
3321;SDS011;1673;51.388;7.086;2023-06-04T02:18:12;6.70;;;3.10;;
3321;SDS011;1673;51.388;7.086;2023-06-04T02:20:44;7.30;;;2.90;;
3321;SDS011;1673;51.388;7.086;2023-06-04T02:23:15;6.50;;;2.85;;
3321;SDS011;1673;51.388;7.086;2023-06-04T02:25:45;6.38;;;2.90;;
3321;SDS011;1673;51.388;7.086;2023-06-04T02:28:16;8.60;;;3.57;;
3321;SDS011;1673;51.388;7.086;2023-06-04T02:30:48;6.18;;;2.60;;
3321;SDS011;1673;51.388;7.086;2023-06-04T02:33:18;8.05;;;3.10;;
3321;SDS011;1673;51.388;7.086;2023-06-04T02:35:48;6.43;;;2.70;;
3321;SDS011;1673;51.388;7.086;2023-06-04T02:38:18;8.30;;;2.93;;
3321;SDS011;1673;51.388;7.086;2023-06-04T02:40:48;7.90;;;2.90;;
3321;SDS011;1673;51.388;7.086;2023-06-04T02:43:17;7.43;;;3.03;;
3321;SDS011;1673;51.388;7.086;2023-06-04T02:45:50;7.03;;;3.00;;
3321;SDS011;1673;51.388;7.086;2023-06-04T02:48:20;5.50;;;2.93;;
3321;SDS011;1673;51.388;7.086;2023-06-04T02:50:50;5.65;;;2.97;;
3321;SDS011;1673;51.388;7.086;2023-06-04T02:53:19;7.60;;;3.13;;
3321;SDS011;1673;51.388;7.086;2023-06-04T02:55:50;6.00;;;2.60;;
3321;SDS011;1673;51.388;7.086;2023-06-04T02:58:20;5.03;;;2.88;;
3321;SDS011;1673;51.388;7.086;2023-06-04T03:00:55;7.43;;;3.30;;
3321;SDS011;1673;51.388;7.086;2023-06-04T03:03:25;8.15;;;3.00;;
3321;SDS011;1673;51.388;7.086;2023-06-04T03:05:58;7.15;;;2.80;;
3321;SDS011;1673;51.388;7.086;2023-06-04T03:08:31;5.72;;;2.92;;
3321;SDS011;1673;51.388;7.086;2023-06-04T03:11:01;6.05;;;3.05;;
3321;SDS011;1673;51.388;7.086;2023-06-04T03:13:31;5.97;;;3.10;;
3321;SDS011;1673;51.388;7.086;2023-06-04T03:16:04;9.60;;;3.33;;
3321;SDS011;1673;51.388;7.086;2023-06-04T03:18:36;6.87;;;3.27;;
3321;SDS011;1673;51.388;7.086;2023-06-04T03:21:06;7.57;;;3.35;;
3321;SDS011;1673;51.388;7.086;2023-06-04T03:23:38;9.25;;;3.15;;
3321;SDS011;1673;51.388;7.086;2023-06-04T03:26:10;6.67;;;3.00;;
3321;SDS011;1673;51.388;7.086;2023-06-04T03:28:42;7.18;;;3.25;;
3321;SDS011;1673;51.388;7.086;2023-06-04T03:31:19;5.75;;;3.00;;
3321;SDS011;1673;51.388;7.086;2023-06-04T03:33:49;5.50;;;2.90;;
3321;SDS011;1673;51.388;7.086;2023-06-04T03:36:20;6.50;;;3.13;;
3321;SDS011;1673;51.388;7.086;2023-06-04T03:39:00;7.38;;;3.58;;
3321;SDS011;1673;51.388;7.086;2023-06-04T03:41:31;14.27;;;3.55;;
3321;SDS011;1673;51.388;7.086;2023-06-04T03:44:01;5.95;;;3.00;;
3321;SDS011;1673;51.388;7.086;2023-06-04T03:46:34;7.20;;;3.50;;
3321;SDS011;1673;51.388;7.086;2023-06-04T03:49:04;6.38;;;3.22;;
3321;SDS011;1673;51.388;7.086;2023-06-04T03:51:34;6.40;;;2.90;;
3321;SDS011;1673;51.388;7.086;2023-06-04T03:54:04;6.40;;;3.50;;
3321;SDS011;1673;51.388;7.086;2023-06-04T03:56:35;6.00;;;3.13;;
3321;SDS011;1673;51.388;7.086;2023-06-04T03:59:08;9.18;;;2.80;;
3321;SDS011;1673;51.388;7.086;2023-06-04T04:01:41;6.30;;;3.10;;
3321;SDS011;1673;51.388;7.086;2023-06-04T04:04:11;6.50;;;3.20;;
3321;SDS011;1673;51.388;7.086;2023-06-04T04:06:41;8.73;;;3.33;;
3321;SDS011;1673;51.388;7.086;2023-06-04T04:09:12;8.23;;;3.53;;
3321;SDS011;1673;51.388;7.086;2023-06-04T04:11:41;5.28;;;3.10;;
3321;SDS011;1673;51.388;7.086;2023-06-04T04:14:12;7.38;;;3.58;;
3321;SDS011;1673;51.388;7.086;2023-06-04T04:16:45;5.63;;;3.50;;
3321;SDS011;1673;51.388;7.086;2023-06-04T04:19:15;6.25;;;3.30;;
3321;SDS011;1673;51.388;7.086;2023-06-04T04:21:45;7.80;;;3.70;;
3321;SDS011;1673;51.388;7.086;2023-06-04T04:24:23;5.55;;;3.25;;
3321;SDS011;1673;51.388;7.086;2023-06-04T04:26:58;5.75;;;3.20;;
3321;SDS011;1673;51.388;7.086;2023-06-04T04:29:30;7.63;;;3.70;;
3321;SDS011;1673;51.388;7.086;2023-06-04T04:32:04;5.78;;;3.30;;
3321;SDS011;1673;51.388;7.086;2023-06-04T04:34:49;5.90;;;3.30;;
3321;SDS011;1673;51.388;7.086;2023-06-04T04:37:25;7.15;;;3.30;;
3321;SDS011;1673;51.388;7.086;2023-06-04T04:39:57;5.10;;;3.10;;
3321;SDS011;1673;51.388;7.086;2023-06-04T04:42:31;7.80;;;3.65;;
3321;SDS011;1673;51.388;7.086;2023-06-04T04:45:03;7.03;;;3.60;;
3321;SDS011;1673;51.388;7.086;2023-06-04T04:47:36;8.07;;;3.65;;
3321;SDS011;1673;51.388;7.086;2023-06-04T04:50:06;8.10;;;3.65;;
3321;SDS011;1673;51.388;7.086;2023-06-04T04:52:36;7.77;;;3.80;;
3321;SDS011;1673;51.388;7.086;2023-06-04T04:55:07;7.85;;;4.20;;
3321;SDS011;1673;51.388;7.086;2023-06-04T04:57:39;7.68;;;3.50;;
3321;SDS011;1673;51.388;7.086;2023-06-04T05:00:10;8.20;;;4.18;;
3321;SDS011;1673;51.388;7.086;2023-06-04T05:02:47;9.10;;;4.28;;
3321;SDS011;1673;51.388;7.086;2023-06-04T05:05:17;8.30;;;4.32;;
3321;SDS011;1673;51.388;7.086;2023-06-04T05:07:48;10.60;;;4.20;;
3321;SDS011;1673;51.388;7.086;2023-06-04T05:10:22;7.95;;;4.25;;
3321;SDS011;1673;51.388;7.086;2023-06-04T05:12:53;10.35;;;4.00;;
3321;SDS011;1673;51.388;7.086;2023-06-04T05:15:28;7.72;;;4.68;;
3321;SDS011;1673;51.388;7.086;2023-06-04T05:18:01;8.02;;;4.03;;
3321;SDS011;1673;51.388;7.086;2023-06-04T05:20:35;9.32;;;4.53;;
3321;SDS011;1673;51.388;7.086;2023-06-04T05:23:08;9.40;;;4.90;;
3321;SDS011;1673;51.388;7.086;2023-06-04T05:25:40;10.37;;;5.50;;
3321;SDS011;1673;51.388;7.086;2023-06-04T05:28:11;10.00;;;4.38;;
3321;SDS011;1673;51.388;7.086;2023-06-04T05:30:41;9.90;;;4.72;;
3321;SDS011;1673;51.388;7.086;2023-06-04T05:33:14;8.55;;;4.70;;
3321;SDS011;1673;51.388;7.086;2023-06-04T05:35:53;8.02;;;4.65;;
3321;SDS011;1673;51.388;7.086;2023-06-04T05:38:30;8.77;;;4.40;;
3321;SDS011;1673;51.388;7.086;2023-06-04T05:41:06;9.60;;;4.65;;
3321;SDS011;1673;51.388;7.086;2023-06-04T05:43:37;10.85;;;4.88;;
3321;SDS011;1673;51.388;7.086;2023-06-04T05:46:08;11.63;;;5.20;;
3321;SDS011;1673;51.388;7.086;2023-06-04T05:48:41;9.38;;;4.80;;
3321;SDS011;1673;51.388;7.086;2023-06-04T05:51:12;10.20;;;4.45;;
3321;SDS011;1673;51.388;7.086;2023-06-04T05:53:43;8.87;;;4.57;;
3321;SDS011;1673;51.388;7.086;2023-06-04T05:56:14;8.07;;;4.50;;
3321;SDS011;1673;51.388;7.086;2023-06-04T05:58:50;10.75;;;4.80;;
3321;SDS011;1673;51.388;7.086;2023-06-04T06:01:23;8.80;;;4.90;;
3321;SDS011;1673;51.388;7.086;2023-06-04T06:03:56;9.52;;;4.90;;
3321;SDS011;1673;51.388;7.086;2023-06-04T06:06:28;8.67;;;4.57;;
3321;SDS011;1673;51.388;7.086;2023-06-04T06:08:59;9.70;;;4.88;;
3321;SDS011;1673;51.388;7.086;2023-06-04T06:11:29;9.40;;;4.70;;
3321;SDS011;1673;51.388;7.086;2023-06-04T06:13:59;13.88;;;5.22;;
3321;SDS011;1673;51.388;7.086;2023-06-04T06:16:29;12.20;;;5.97;;
3321;SDS011;1673;51.388;7.086;2023-06-04T06:19:02;11.05;;;5.63;;
3321;SDS011;1673;51.388;7.086;2023-06-04T06:21:32;11.32;;;5.60;;
3321;SDS011;1673;51.388;7.086;2023-06-04T06:24:03;9.90;;;5.40;;
3321;SDS011;1673;51.388;7.086;2023-06-04T06:26:33;11.15;;;5.20;;
3321;SDS011;1673;51.388;7.086;2023-06-04T06:29:05;11.18;;;5.30;;
3321;SDS011;1673;51.388;7.086;2023-06-04T06:31:35;10.03;;;4.70;;
3321;SDS011;1673;51.388;7.086;2023-06-04T06:34:07;7.60;;;4.40;;
3321;SDS011;1673;51.388;7.086;2023-06-04T06:36:37;6.75;;;4.03;;
3321;SDS011;1673;51.388;7.086;2023-06-04T06:39:07;9.70;;;3.90;;
3321;SDS011;1673;51.388;7.086;2023-06-04T06:41:37;8.00;;;3.80;;
3321;SDS011;1673;51.388;7.086;2023-06-04T06:44:11;7.63;;;4.22;;
3321;SDS011;1673;51.388;7.086;2023-06-04T06:46:41;8.88;;;4.32;;
3321;SDS011;1673;51.388;7.086;2023-06-04T06:49:13;7.80;;;4.10;;
3321;SDS011;1673;51.388;7.086;2023-06-04T06:51:43;8.67;;;3.90;;
3321;SDS011;1673;51.388;7.086;2023-06-04T06:54:14;8.40;;;3.55;;
3321;SDS011;1673;51.388;7.086;2023-06-04T06:56:48;7.75;;;3.90;;
3321;SDS011;1673;51.388;7.086;2023-06-04T06:59:17;6.72;;;3.33;;
3321;SDS011;1673;51.388;7.086;2023-06-04T07:01:47;7.03;;;3.70;;
3321;SDS011;1673;51.388;7.086;2023-06-04T07:04:20;7.18;;;3.50;;
3321;SDS011;1673;51.388;7.086;2023-06-04T07:06:49;7.85;;;3.17;;
3321;SDS011;1673;51.388;7.086;2023-06-04T07:09:19;7.80;;;3.85;;
3321;SDS011;1673;51.388;7.086;2023-06-04T07:11:49;7.17;;;3.10;;
3321;SDS011;1673;51.388;7.086;2023-06-04T07:14:19;6.97;;;3.25;;
3321;SDS011;1673;51.388;7.086;2023-06-04T07:16:49;7.60;;;4.10;;
3321;SDS011;1673;51.388;7.086;2023-06-04T07:19:21;6.40;;;3.47;;
3321;SDS011;1673;51.388;7.086;2023-06-04T07:21:53;6.30;;;3.10;;
3321;SDS011;1673;51.388;7.086;2023-06-04T07:24:24;6.40;;;3.08;;
3321;SDS011;1673;51.388;7.086;2023-06-04T07:26:53;6.60;;;3.00;;
3321;SDS011;1673;51.388;7.086;2023-06-04T07:29:23;9.90;;;3.63;;
3321;SDS011;1673;51.388;7.086;2023-06-04T07:31:53;6.72;;;2.75;;
3321;SDS011;1673;51.388;7.086;2023-06-04T07:34:25;12.95;;;3.10;;
3321;SDS011;1673;51.388;7.086;2023-06-04T07:36:55;5.32;;;2.75;;
3321;SDS011;1673;51.388;7.086;2023-06-04T07:39:25;5.28;;;2.65;;
3321;SDS011;1673;51.388;7.086;2023-06-04T07:41:54;6.28;;;3.00;;
3321;SDS011;1673;51.388;7.086;2023-06-04T07:44:24;13.70;;;3.10;;
3321;SDS011;1673;51.388;7.086;2023-06-04T07:46:54;7.22;;;2.47;;
3321;SDS011;1673;51.388;7.086;2023-06-04T07:49:26;6.70;;;2.80;;
3321;SDS011;1673;51.388;7.086;2023-06-04T07:51:56;9.38;;;3.00;;
3321;SDS011;1673;51.388;7.086;2023-06-04T07:54:26;5.20;;;2.50;;
3321;SDS011;1673;51.388;7.086;2023-06-04T07:56:56;8.05;;;3.00;;
3321;SDS011;1673;51.388;7.086;2023-06-04T07:59:26;8.38;;;3.10;;
3321;SDS011;1673;51.388;7.086;2023-06-04T08:01:56;6.40;;;2.80;;
3321;SDS011;1673;51.388;7.086;2023-06-04T08:04:29;8.27;;;3.20;;
3321;SDS011;1673;51.388;7.086;2023-06-04T08:06:58;6.72;;;3.10;;
3321;SDS011;1673;51.388;7.086;2023-06-04T08:09:28;6.90;;;3.00;;
3321;SDS011;1673;51.388;7.086;2023-06-04T08:11:59;8.50;;;3.60;;
3321;SDS011;1673;51.388;7.086;2023-06-04T08:14:29;8.65;;;3.20;;
3321;SDS011;1673;51.388;7.086;2023-06-04T08:16:58;11.77;;;3.67;;
3321;SDS011;1673;51.388;7.086;2023-06-04T08:19:31;6.82;;;3.90;;
3321;SDS011;1673;51.388;7.086;2023-06-04T08:22:01;8.00;;;3.80;;
3321;SDS011;1673;51.388;7.086;2023-06-04T08:24:31;7.47;;;3.63;;
3321;SDS011;1673;51.388;7.086;2023-06-04T08:27:01;5.73;;;3.43;;
3321;SDS011;1673;51.388;7.086;2023-06-04T08:29:31;7.55;;;3.72;;
3321;SDS011;1673;51.388;7.086;2023-06-04T08:32:01;6.90;;;3.90;;
3321;SDS011;1673;51.388;7.086;2023-06-04T08:34:34;11.10;;;3.70;;
3321;SDS011;1673;51.388;7.086;2023-06-04T08:37:05;9.20;;;3.83;;
3321;SDS011;1673;51.388;7.086;2023-06-04T08:39:35;6.15;;;3.80;;
3321;SDS011;1673;51.388;7.086;2023-06-04T08:42:06;6.63;;;3.50;;
3321;SDS011;1673;51.388;7.086;2023-06-04T08:44:36;9.77;;;3.50;;
3321;SDS011;1673;51.388;7.086;2023-06-04T08:47:06;6.40;;;3.40;;
3321;SDS011;1673;51.388;7.086;2023-06-04T08:49:40;10.48;;;4.10;;
3321;SDS011;1673;51.388;7.086;2023-06-04T08:52:10;7.35;;;3.78;;
3321;SDS011;1673;51.388;7.086;2023-06-04T08:54:40;5.68;;;3.58;;
3321;SDS011;1673;51.388;7.086;2023-06-04T08:57:09;6.87;;;4.00;;
3321;SDS011;1673;51.388;7.086;2023-06-04T08:59:39;8.52;;;4.30;;
3321;SDS011;1673;51.388;7.086;2023-06-04T09:02:09;10.88;;;4.47;;
3321;SDS011;1673;51.388;7.086;2023-06-04T09:04:42;6.90;;;4.50;;
3321;SDS011;1673;51.388;7.086;2023-06-04T09:07:12;7.95;;;4.55;;
3321;SDS011;1673;51.388;7.086;2023-06-04T09:09:45;5.82;;;4.10;;
3321;SDS011;1673;51.388;7.086;2023-06-04T09:12:35;5.90;;;3.90;;
3321;SDS011;1673;51.388;7.086;2023-06-04T09:15:07;11.23;;;4.57;;
3321;SDS011;1673;51.388;7.086;2023-06-04T09:17:37;10.73;;;4.40;;
3321;SDS011;1673;51.388;7.086;2023-06-04T09:20:10;9.75;;;4.50;;
3321;SDS011;1673;51.388;7.086;2023-06-04T09:22:48;8.85;;;4.30;;
3321;SDS011;1673;51.388;7.086;2023-06-04T09:25:21;7.75;;;3.80;;
3321;SDS011;1673;51.388;7.086;2023-06-04T09:27:52;6.90;;;3.90;;
3321;SDS011;1673;51.388;7.086;2023-06-04T09:30:22;8.00;;;3.78;;
3321;SDS011;1673;51.388;7.086;2023-06-04T09:32:52;6.90;;;4.00;;
3321;SDS011;1673;51.388;7.086;2023-06-04T09:35:25;6.63;;;3.70;;
3321;SDS011;1673;51.388;7.086;2023-06-04T09:37:55;7.13;;;3.88;;
3321;SDS011;1673;51.388;7.086;2023-06-04T09:40:34;7.25;;;3.85;;
3321;SDS011;1673;51.388;7.086;2023-06-04T09:43:05;6.82;;;3.60;;
3321;SDS011;1673;51.388;7.086;2023-06-04T09:45:35;6.38;;;3.50;;
3321;SDS011;1673;51.388;7.086;2023-06-04T09:48:05;5.95;;;3.47;;
3321;SDS011;1673;51.388;7.086;2023-06-04T09:50:38;5.45;;;2.88;;
3321;SDS011;1673;51.388;7.086;2023-06-04T09:53:14;8.70;;;3.10;;
3321;SDS011;1673;51.388;7.086;2023-06-04T09:55:44;8.20;;;3.20;;
3321;SDS011;1673;51.388;7.086;2023-06-04T09:58:25;5.82;;;2.78;;
3321;SDS011;1673;51.388;7.086;2023-06-04T10:00:55;4.40;;;2.10;;
3321;SDS011;1673;51.388;7.086;2023-06-04T10:03:27;9.03;;;2.50;;
3321;SDS011;1673;51.388;7.086;2023-06-04T10:06:03;6.13;;;3.20;;
3321;SDS011;1673;51.388;7.086;2023-06-04T10:08:34;4.43;;;2.40;;
3321;SDS011;1673;51.388;7.086;2023-06-04T10:11:03;6.97;;;3.00;;
3321;SDS011;1673;51.388;7.086;2023-06-04T10:13:35;10.65;;;2.72;;
3321;SDS011;1673;51.388;7.086;2023-06-04T10:16:09;6.22;;;3.50;;
3321;SDS011;1673;51.388;7.086;2023-06-04T10:18:58;5.10;;;2.92;;
3321;SDS011;1673;51.388;7.086;2023-06-04T10:21:31;5.50;;;2.90;;
3321;SDS011;1673;51.388;7.086;2023-06-04T10:24:02;6.93;;;3.40;;
3321;SDS011;1673;51.388;7.086;2023-06-04T10:26:32;5.07;;;2.93;;
3321;SDS011;1673;51.388;7.086;2023-06-04T10:29:03;8.23;;;3.20;;
3321;SDS011;1673;51.388;7.086;2023-06-04T10:31:33;7.35;;;3.30;;
3321;SDS011;1673;51.388;7.086;2023-06-04T10:34:02;8.80;;;3.65;;
3321;SDS011;1673;51.388;7.086;2023-06-04T10:36:41;6.65;;;3.42;;
3321;SDS011;1673;51.388;7.086;2023-06-04T10:39:12;9.80;;;3.42;;
3321;SDS011;1673;51.388;7.086;2023-06-04T10:41:42;8.10;;;3.00;;
3321;SDS011;1673;51.388;7.086;2023-06-04T10:44:12;5.45;;;3.22;;
3321;SDS011;1673;51.388;7.086;2023-06-04T10:46:42;8.35;;;3.00;;
3321;SDS011;1673;51.388;7.086;2023-06-04T10:49:12;5.60;;;2.95;;
3321;SDS011;1673;51.388;7.086;2023-06-04T10:51:45;8.10;;;3.42;;
3321;SDS011;1673;51.388;7.086;2023-06-04T10:54:21;6.85;;;3.22;;
3321;SDS011;1673;51.388;7.086;2023-06-04T10:56:52;5.35;;;3.10;;
3321;SDS011;1673;51.388;7.086;2023-06-04T10:59:22;4.75;;;3.10;;
3321;SDS011;1673;51.388;7.086;2023-06-04T11:02:03;4.90;;;2.70;;
3321;SDS011;1673;51.388;7.086;2023-06-04T11:04:34;6.15;;;3.00;;
3321;SDS011;1673;51.388;7.086;2023-06-04T11:07:08;5.70;;;2.60;;
3321;SDS011;1673;51.388;7.086;2023-06-04T11:09:40;6.10;;;2.90;;
3321;SDS011;1673;51.388;7.086;2023-06-04T11:12:17;5.32;;;2.55;;
3321;SDS011;1673;51.388;7.086;2023-06-04T11:14:56;4.93;;;2.80;;
3321;SDS011;1673;51.388;7.086;2023-06-04T11:17:26;6.10;;;2.90;;
3321;SDS011;1673;51.388;7.086;2023-06-04T11:19:57;6.20;;;3.42;;
3321;SDS011;1673;51.388;7.086;2023-06-04T11:22:29;9.35;;;3.05;;
3321;SDS011;1673;51.388;7.086;2023-06-04T11:24:59;5.93;;;3.30;;
3321;SDS011;1673;51.388;7.086;2023-06-04T11:27:29;7.27;;;2.80;;
3321;SDS011;1673;51.388;7.086;2023-06-04T11:30:03;5.97;;;3.15;;
3321;SDS011;1673;51.388;7.086;2023-06-04T11:32:34;8.00;;;3.17;;
3321;SDS011;1673;51.388;7.086;2023-06-04T11:35:04;5.85;;;2.85;;
3321;SDS011;1673;51.388;7.086;2023-06-04T11:37:37;5.53;;;2.40;;
3321;SDS011;1673;51.388;7.086;2023-06-04T11:40:14;4.90;;;2.50;;
3321;SDS011;1673;51.388;7.086;2023-06-04T11:42:45;5.18;;;2.40;;
3321;SDS011;1673;51.388;7.086;2023-06-04T11:45:16;8.98;;;2.70;;
3321;SDS011;1673;51.388;7.086;2023-06-04T11:47:47;8.63;;;2.92;;
3321;SDS011;1673;51.388;7.086;2023-06-04T11:50:17;7.40;;;2.90;;
3321;SDS011;1673;51.388;7.086;2023-06-04T11:52:51;5.60;;;3.00;;
3321;SDS011;1673;51.388;7.086;2023-06-04T11:55:25;5.25;;;2.50;;
3321;SDS011;1673;51.388;7.086;2023-06-04T11:57:55;7.20;;;2.90;;
3321;SDS011;1673;51.388;7.086;2023-06-04T12:00:25;5.65;;;3.20;;
3321;SDS011;1673;51.388;7.086;2023-06-04T12:02:55;6.28;;;2.80;;
3321;SDS011;1673;51.388;7.086;2023-06-04T12:05:28;4.47;;;2.60;;
3321;SDS011;1673;51.388;7.086;2023-06-04T12:08:08;5.37;;;2.60;;
3321;SDS011;1673;51.388;7.086;2023-06-04T12:10:39;4.80;;;2.67;;
3321;SDS011;1673;51.388;7.086;2023-06-04T12:13:09;7.60;;;2.40;;
3321;SDS011;1673;51.388;7.086;2023-06-04T12:15:39;4.47;;;2.50;;
3321;SDS011;1673;51.388;7.086;2023-06-04T12:18:09;5.65;;;2.35;;
3321;SDS011;1673;51.388;7.086;2023-06-04T12:20:39;7.93;;;2.80;;
3321;SDS011;1673;51.388;7.086;2023-06-04T12:23:19;6.05;;;2.72;;
3321;SDS011;1673;51.388;7.086;2023-06-04T12:25:50;7.03;;;3.00;;
3321;SDS011;1673;51.388;7.086;2023-06-04T12:28:20;5.60;;;2.70;;
3321;SDS011;1673;51.388;7.086;2023-06-04T12:30:50;4.53;;;2.58;;
3321;SDS011;1673;51.388;7.086;2023-06-04T12:33:20;7.90;;;2.80;;
3321;SDS011;1673;51.388;7.086;2023-06-04T12:35:49;6.32;;;2.90;;
3321;SDS011;1673;51.388;7.086;2023-06-04T12:38:22;6.25;;;2.60;;
3321;SDS011;1673;51.388;7.086;2023-06-04T12:40:51;6.10;;;3.00;;
3321;SDS011;1673;51.388;7.086;2023-06-04T12:43:21;7.00;;;2.70;;
3321;SDS011;1673;51.388;7.086;2023-06-04T12:45:52;4.63;;;2.30;;
3321;SDS011;1673;51.388;7.086;2023-06-04T12:48:22;3.80;;;2.45;;
3321;SDS011;1673;51.388;7.086;2023-06-04T12:50:52;4.65;;;2.10;;
3321;SDS011;1673;51.388;7.086;2023-06-04T12:53:24;3.90;;;2.20;;
3321;SDS011;1673;51.388;7.086;2023-06-04T12:55:54;5.03;;;2.30;;
3321;SDS011;1673;51.388;7.086;2023-06-04T12:58:24;6.57;;;2.30;;
3321;SDS011;1673;51.388;7.086;2023-06-04T13:00:53;4.80;;;2.60;;
3321;SDS011;1673;51.388;7.086;2023-06-04T13:03:23;5.38;;;2.47;;
3321;SDS011;1673;51.388;7.086;2023-06-04T13:05:53;5.90;;;2.43;;
3321;SDS011;1673;51.388;7.086;2023-06-04T13:08:25;5.22;;;2.33;;
3321;SDS011;1673;51.388;7.086;2023-06-04T13:10:55;3.77;;;2.20;;
3321;SDS011;1673;51.388;7.086;2023-06-04T13:13:25;4.00;;;2.08;;
3321;SDS011;1673;51.388;7.086;2023-06-04T13:15:56;5.13;;;2.53;;
3321;SDS011;1673;51.388;7.086;2023-06-04T13:18:26;5.00;;;2.40;;
3321;SDS011;1673;51.388;7.086;2023-06-04T13:20:56;7.20;;;2.65;;
3321;SDS011;1673;51.388;7.086;2023-06-04T13:23:28;4.93;;;2.37;;
3321;SDS011;1673;51.388;7.086;2023-06-04T13:26:15;7.78;;;2.55;;
3321;SDS011;1673;51.388;7.086;2023-06-04T13:28:45;6.80;;;2.00;;
3321;SDS011;1673;51.388;7.086;2023-06-04T13:31:15;5.13;;;2.83;;
3321;SDS011;1673;51.388;7.086;2023-06-04T13:33:45;4.68;;;2.38;;
3321;SDS011;1673;51.388;7.086;2023-06-04T13:36:15;7.40;;;2.60;;
3321;SDS011;1673;51.388;7.086;2023-06-04T13:38:47;5.40;;;1.92;;
3321;SDS011;1673;51.388;7.086;2023-06-04T13:41:19;4.93;;;2.30;;
3321;SDS011;1673;51.388;7.086;2023-06-04T13:43:49;8.80;;;2.30;;
3321;SDS011;1673;51.388;7.086;2023-06-04T13:46:19;5.25;;;2.20;;
3321;SDS011;1673;51.388;7.086;2023-06-04T13:48:49;7.95;;;2.53;;
3321;SDS011;1673;51.388;7.086;2023-06-04T13:51:18;3.65;;;2.25;;
3321;SDS011;1673;51.388;7.086;2023-06-04T13:53:51;4.07;;;2.20;;
3321;SDS011;1673;51.388;7.086;2023-06-04T13:56:21;6.13;;;2.30;;
3321;SDS011;1673;51.388;7.086;2023-06-04T13:58:51;7.20;;;2.60;;
3321;SDS011;1673;51.388;7.086;2023-06-04T14:01:21;5.78;;;2.40;;
3321;SDS011;1673;51.388;7.086;2023-06-04T14:03:51;6.53;;;2.40;;
3321;SDS011;1673;51.388;7.086;2023-06-04T14:06:21;5.85;;;2.33;;
3321;SDS011;1673;51.388;7.086;2023-06-04T14:08:54;7.35;;;2.60;;
3321;SDS011;1673;51.388;7.086;2023-06-04T14:11:23;5.80;;;2.50;;
3321;SDS011;1673;51.388;7.086;2023-06-04T14:13:53;6.97;;;2.63;;
3321;SDS011;1673;51.388;7.086;2023-06-04T14:16:23;5.70;;;2.25;;
3321;SDS011;1673;51.388;7.086;2023-06-04T14:18:53;7.40;;;2.40;;
3321;SDS011;1673;51.388;7.086;2023-06-04T14:21:23;5.93;;;2.30;;
3321;SDS011;1673;51.388;7.086;2023-06-04T14:23:55;4.10;;;2.10;;
3321;SDS011;1673;51.388;7.086;2023-06-04T14:26:25;6.45;;;2.15;;
3321;SDS011;1673;51.388;7.086;2023-06-04T14:28:55;6.65;;;2.40;;
3321;SDS011;1673;51.388;7.086;2023-06-04T14:31:25;4.97;;;2.30;;
3321;SDS011;1673;51.388;7.086;2023-06-04T14:33:54;4.15;;;2.30;;
3321;SDS011;1673;51.388;7.086;2023-06-04T14:36:24;4.50;;;2.20;;
3321;SDS011;1673;51.388;7.086;2023-06-04T14:38:56;3.90;;;2.00;;
3321;SDS011;1673;51.388;7.086;2023-06-04T14:41:26;4.75;;;2.25;;
3321;SDS011;1673;51.388;7.086;2023-06-04T14:43:56;6.20;;;2.55;;
3321;SDS011;1673;51.388;7.086;2023-06-04T14:46:26;5.10;;;2.20;;
3321;SDS011;1673;51.388;7.086;2023-06-04T14:48:56;4.40;;;2.25;;
3321;SDS011;1673;51.388;7.086;2023-06-04T14:51:26;4.00;;;1.90;;
3321;SDS011;1673;51.388;7.086;2023-06-04T14:53:58;5.53;;;2.00;;
3321;SDS011;1673;51.388;7.086;2023-06-04T14:56:28;7.50;;;2.30;;
3321;SDS011;1673;51.388;7.086;2023-06-04T14:58:59;5.20;;;2.60;;
3321;SDS011;1673;51.388;7.086;2023-06-04T15:01:32;4.72;;;2.08;;
3321;SDS011;1673;51.388;7.086;2023-06-04T15:04:02;5.47;;;2.10;;
3321;SDS011;1673;51.388;7.086;2023-06-04T15:06:31;4.70;;;2.20;;
3321;SDS011;1673;51.388;7.086;2023-06-04T15:09:04;5.05;;;2.38;;
3321;SDS011;1673;51.388;7.086;2023-06-04T15:11:34;4.18;;;2.20;;
3321;SDS011;1673;51.388;7.086;2023-06-04T15:14:04;5.40;;;2.10;;
3321;SDS011;1673;51.388;7.086;2023-06-04T15:16:33;5.85;;;2.80;;
3321;SDS011;1673;51.388;7.086;2023-06-04T15:19:03;5.20;;;3.05;;
3321;SDS011;1673;51.388;7.086;2023-06-04T15:21:33;5.10;;;3.30;;
3321;SDS011;1673;51.388;7.086;2023-06-04T15:24:05;4.75;;;2.88;;
3321;SDS011;1673;51.388;7.086;2023-06-04T15:26:36;6.50;;;3.20;;
3321;SDS011;1673;51.388;7.086;2023-06-04T15:29:05;8.10;;;3.20;;
3321;SDS011;1673;51.388;7.086;2023-06-04T15:31:35;8.07;;;4.88;;
3321;SDS011;1673;51.388;7.086;2023-06-04T15:34:05;11.88;;;6.18;;
3321;SDS011;1673;51.388;7.086;2023-06-04T15:36:35;26.95;;;20.90;;
3321;SDS011;1673;51.388;7.086;2023-06-04T15:39:08;12.80;;;11.02;;
3321;SDS011;1673;51.388;7.086;2023-06-04T15:41:38;11.95;;;9.93;;